Pagrindinis puslapis
METAR-TAF:

METAR-TAF

Oro uostai :

Luganas, Šveicarija

platuma: 46-00N, ilguma: 008-58E, Aukštis: 273 m

Dabartinis oras

Ataskaita buvo paskelbta 35 minutes, ne 18:20 UTC
Vėjas 2 kt nuo kintamojo kryptimis
Temperatūra 18°C
Drėgmė 83%
Slėgis 1022 hPa
Matomumas 10 km arba daugiau
Mažai debesys ne aukštis 2800 ft
Išsisklaidę debesys ne aukštis 4500 ft
Su prošvaistėmis ne aukštis 5000 ft

METAR: LSZA 191820Z VRB02KT 9999 FEW028 SCT045 BKN050 18/15 Q1022 NOSIG

Laikas: 20:55 (18:55 UTC)

Prognozė

Ataskaita buvo paskelbta 4 valandos ir 30 minutes, ne 14:25 UTC
Prognozė galioja nuo 19 metu 15 UTC su 19 metu 24 UTC
Vėjas 5 kt iš Pietų
Matomumas 10 km arba daugiau
Mažai debesys ne aukštis 2500 ft
Su prošvaistėmis ne aukštis 4000 ft

TAF: LSZA 191425Z 1915/1924 18005KT 9999 FEW025 BKN040

Orai ataskaitas ir orų prognozės (METAR, TAF).

turimą stotys yra geltonos ir raudonos taškus žemėlapyje.

Perkelti pele per norėdami pamatyti stoties vardą.

Tada spustelėkite, norėdami matyti oro stebėjimo ir prognozės.

Norėdami pakeisti žemėlapį: spustelėkite ant žalios mygtukų su juodo kryžiaus žemyn,; žalią mygtuką su brūkšneliu, jei norite nutolinti; arba žalių rodyklių gretimoms žemėlapius.


METAR-TAF: